Aviation Digital Data Service (ADDS)

Output produced by METARs form (0922 UTC 23 October 2014)
found at http://aviationweather.gov/adds/metars/
 
KFRG 230853Z AUTO 01015KT 10SM BKN021 OVC026 11/08 A2967 RMK AO2 PK WND 02026/0824 SLP046 T01110083 55006
KISP 230907Z AUTO 01015G31KT 5SM RA BR SCT019 BKN060 OVC075 11/08 A2964 RMK AO2 PK WND 01031/0900 LTG DSNT NE P0003 T01060083
KISP 230856Z AUTO 02021G30KT 5SM RA BR BKN017 BKN028 OVC050 11/08 A2963 RMK AO2 PK WND 36030/0849 LTG DSNT NE RAB36 SLP034 P0002 60002 T01060083 55003
KISP 230830Z 2309/2406 01022G31KT P6SM OVC020 
     TEMPO 2309/2311 4SM -RA BR BKN012 
     FM231100 36021G30KT 6SM BR VCSH BKN015 
     FM231400 34019G29KT P6SM VCSH BKN015 
     FM231900 34017G27KT P6SM BKN025 OVC035 
     FM240000 33015G25KT P6SM BKN040 BKN080 
     FM240400 33013G22KT P6SM BKN050 BKN080
       
KJFK 230851Z 36015G22KT 10SM -RA SCT014 BKN050 OVC080 11/09 A2968 RMK AO2 PK WND 36030/0753 RAB06 SLP049 P0002 60002 T01110089 56006
KJFK 230830Z 2309/2412 01023G30KT P6SM BKN020 
     TEMPO 2309/2311 5SM -RA BR BKN012 
     FM231100 36022G31KT 6SM BR VCSH BKN015 
     FM231400 34021G29KT P6SM VCSH BKN015 
     FM231800 33020G28KT P6SM BKN025 OVC035 
     FM232300 33017G25KT P6SM BKN040 BKN080 
     FM240400 33015G21KT P6SM BKN050 BKN080
       
KBDR 230912Z 01024G32KT 10SM BKN023 BKN055 OVC100 11/08 A2966 RMK AO2 PK WND 03032/0853 T01110083
KBDR 230903Z 01025G31KT 10SM SCT022 BKN055 OVC100 11/08 A2965 RMK AO2 PK WND 03032/0853 LTG DSNT E T01110083
KBDR 230852Z 01024G32KT 10SM BKN022 BKN055 OVC085 11/08 A2965 RMK AO2 PK WND 01033/0802 LTG DSNT E RAB29E45 SLP039 P0000 60005 T01110083 56016
KBDR 230830Z 2309/2406 36021G30KT P6SM OVC020 
     TEMPO 2309/2311 5SM -RA BR BKN012 
     FM231100 01021G29KT 6SM BR VCSH BKN015 
     FM231400 35018G27KT P6SM VCSH BKN015 
     FM231900 34017G26KT P6SM BKN025 OVC035 
     FM240000 33015G24KT P6SM BKN040 BKN080 
     FM240400 33013G22KT P6SM BKN050 BKN080